createdAt,value
2018-06-05T00:03:04.687Z,17.00
2018-06-05T00:08:07.310Z,16.90
2018-06-05T00:13:09.970Z,16.80
2018-06-05T00:18:12.529Z,16.60
2018-06-05T00:23:15.162Z,16.50
2018-06-05T00:28:17.754Z,16.50
2018-06-05T00:33:20.477Z,16.50
2018-06-05T00:38:23.090Z,16.40
2018-06-05T00:43:25.671Z,16.20
2018-06-05T00:48:28.251Z,16.20
2018-06-05T00:53:31.061Z,16.10
2018-06-05T00:58:33.778Z,16.00
2018-06-05T01:03:36.374Z,16.00
2018-06-05T01:08:39.063Z,16.00
2018-06-05T01:13:41.662Z,16.10
2018-06-05T01:18:44.302Z,16.10
2018-06-05T01:23:46.895Z,16.10
2018-06-05T01:28:49.505Z,16.00
2018-06-05T01:33:52.091Z,15.70
2018-06-05T01:38:54.712Z,15.70
2018-06-05T01:43:57.358Z,15.60
2018-06-05T01:48:59.990Z,15.60
2018-06-05T01:54:02.587Z,15.60
2018-06-05T01:59:05.255Z,15.50
2018-06-05T02:04:08.071Z,15.50
2018-06-05T02:09:10.686Z,15.50
2018-06-05T02:14:13.283Z,15.40
2018-06-05T02:19:15.888Z,15.30
2018-06-05T02:24:18.570Z,15.30
2018-06-05T02:29:21.187Z,15.10
2018-06-05T02:34:23.952Z,15.00
2018-06-05T02:39:26.560Z,14.80
2018-06-05T02:44:29.185Z,14.70
2018-06-05T02:54:34.351Z,14.60
2018-06-05T02:59:37.043Z,14.50
2018-06-05T03:04:40.328Z,14.40
2018-06-05T03:09:42.936Z,14.50
2018-06-05T03:14:45.542Z,14.50
2018-06-05T03:19:48.151Z,14.50
2018-06-05T03:24:50.822Z,14.50
2018-06-05T03:29:53.447Z,14.50
2018-06-05T03:34:56.038Z,14.40
2018-06-05T03:39:58.742Z,14.40
2018-06-05T03:45:01.355Z,14.40
2018-06-05T03:50:04.019Z,14.50
2018-06-05T03:55:06.654Z,14.50
2018-06-05T04:00:09.294Z,14.70
2018-06-05T04:05:12.050Z,14.80
2018-06-05T04:10:14.664Z,14.90
2018-06-05T04:15:18.086Z,15.00
2018-06-05T04:20:20.750Z,15.10
2018-06-05T04:25:23.352Z,15.20
2018-06-05T04:30:25.954Z,15.30
2018-06-05T04:35:28.577Z,15.50
2018-06-05T04:40:31.332Z,15.70
2018-06-05T04:45:33.927Z,16.00
2018-06-05T04:50:36.530Z,16.30
2018-06-05T05:00:42.178Z,16.90
2018-06-05T05:05:44.805Z,17.20
2018-06-05T05:10:47.409Z,17.30
2018-06-05T05:15:50.088Z,17.50
2018-06-05T05:20:52.735Z,17.70
2018-06-05T05:25:55.401Z,17.90
2018-06-05T05:30:58.037Z,17.90
2018-06-05T05:36:00.724Z,18.00
2018-06-05T05:41:03.333Z,18.10
2018-06-05T05:46:05.975Z,18.30
2018-06-05T05:51:08.581Z,18.50
2018-06-05T05:56:11.389Z,18.60
2018-06-05T06:01:14.163Z,18.80
2018-06-05T06:06:16.788Z,18.80
2018-06-05T06:11:19.467Z,18.90
2018-06-05T06:16:22.223Z,19.10
2018-06-05T06:21:24.867Z,19.20
2018-06-05T06:26:27.486Z,19.40
2018-06-05T06:31:30.099Z,19.70
2018-06-05T06:36:32.758Z,19.80
2018-06-05T06:41:35.646Z,20.20
2018-06-05T06:46:38.263Z,20.50
2018-06-05T06:51:40.866Z,20.70
2018-06-05T06:56:43.583Z,20.90
2018-06-05T14:01:34.668Z,43.40
2018-06-05T14:06:38.201Z,43.70
2018-06-05T14:11:40.908Z,43.70
2018-06-05T14:16:43.536Z,43.50
2018-06-05T14:21:46.746Z,40.00
2018-06-05T14:26:50.057Z,41.60
2018-06-05T14:31:52.807Z,41.70
2018-06-05T14:36:55.398Z,43.90
2018-06-05T14:41:58.056Z,44.00
2018-06-05T14:47:00.681Z,43.40
2018-06-05T14:52:03.321Z,44.60
2018-06-05T14:57:06.183Z,44.70
2018-06-05T15:02:08.804Z,43.90
2018-06-05T15:07:12.029Z,43.60
2018-06-05T15:12:14.625Z,44.50
2018-06-05T15:17:17.287Z,43.00
2018-06-05T15:22:19.911Z,43.70
2018-06-05T15:27:22.563Z,44.10
2018-06-05T15:32:25.178Z,42.70
2018-06-05T15:42:30.419Z,35.90
2018-06-05T15:47:33.067Z,35.10
2018-06-05T15:52:35.687Z,36.10
2018-06-05T15:57:38.321Z,39.70
2018-06-05T16:02:40.995Z,38.70
2018-06-05T16:07:43.805Z,36.30
2018-06-05T16:12:46.422Z,35.00
2018-06-05T16:17:49.119Z,36.00
2018-06-05T16:22:51.737Z,37.50
2018-06-05T16:27:54.355Z,37.00
2018-06-05T16:32:56.942Z,35.30
2018-06-05T16:37:59.575Z,33.90
2018-06-05T16:43:02.252Z,32.90
2018-06-05T16:48:04.927Z,34.80
2018-06-05T16:53:07.590Z,36.50
2018-06-05T16:58:10.208Z,37.10
2018-06-05T17:03:12.839Z,36.90
2018-06-05T17:08:15.480Z,36.90
2018-06-05T17:13:18.085Z,35.60
2018-06-05T17:18:20.742Z,33.10
2018-06-05T17:23:23.343Z,31.20
2018-06-05T17:28:25.981Z,29.60
2018-06-05T17:33:28.654Z,28.70
2018-06-05T17:38:31.371Z,27.90
2018-06-05T17:43:35.175Z,27.50
2018-06-05T17:48:38.075Z,27.50
2018-06-05T17:53:40.703Z,27.50
2018-06-05T18:03:45.843Z,27.40
2018-06-05T18:08:48.484Z,27.20
2018-06-05T18:13:51.172Z,27.00
2018-06-05T18:18:54.003Z,26.80
2018-06-05T18:23:56.754Z,26.50
2018-06-05T18:28:59.393Z,26.20
2018-06-05T18:34:02.015Z,25.80
2018-06-05T18:39:06.991Z,25.60
2018-06-05T18:44:09.644Z,25.30
2018-06-05T18:49:12.340Z,25.10
2018-06-05T18:54:15.066Z,24.90
2018-06-05T18:59:19.047Z,24.40
2018-06-05T19:04:21.683Z,24.00
2018-06-05T19:09:24.317Z,23.70
2018-06-05T19:14:26.984Z,23.30
2018-06-05T19:19:29.668Z,22.90
2018-06-05T19:24:32.355Z,22.60
2018-06-05T19:29:35.150Z,22.20
2018-06-05T19:34:37.759Z,21.90
2018-06-05T19:39:40.425Z,21.60
2018-06-05T19:44:43.181Z,21.40
2018-06-05T19:49:45.828Z,21.20
2018-06-05T19:54:48.456Z,21.00
2018-06-05T19:59:51.120Z,20.90
2018-06-05T20:04:53.817Z,20.70
2018-06-05T20:09:56.475Z,20.40
2018-06-05T20:20:01.803Z,20.00
2018-06-05T20:25:04.435Z,20.00
2018-06-05T20:30:07.120Z,19.90
2018-06-05T20:35:09.738Z,19.80
2018-06-05T20:40:12.408Z,19.60
2018-06-05T20:45:15.004Z,19.50
2018-06-05T20:50:17.630Z,19.20
2018-06-05T20:55:20.242Z,19.00
2018-06-05T21:00:22.863Z,20.40
2018-06-05T21:05:25.511Z,18.70
2018-06-05T21:10:28.177Z,18.70
2018-06-05T21:15:30.811Z,18.50
2018-06-05T21:20:33.674Z,18.40
2018-06-05T21:25:36.311Z,18.30
2018-06-05T21:30:38.918Z,18.30
2018-06-05T21:35:41.608Z,18.30
2018-06-05T21:45:46.797Z,18.00
2018-06-05T21:50:49.417Z,18.00
2018-06-05T21:55:51.998Z,18.00
2018-06-05T22:00:54.605Z,17.90
2018-06-05T22:05:57.227Z,17.90
2018-06-05T22:10:59.950Z,17.80
2018-06-05T22:16:02.652Z,17.70
2018-06-05T22:26:07.862Z,17.60
2018-06-05T22:31:10.492Z,17.40
2018-06-05T22:36:13.646Z,17.40
2018-06-05T22:41:16.250Z,17.30
2018-06-05T22:46:18.863Z,17.30
2018-06-05T22:51:21.476Z,17.20
2018-06-05T22:56:24.046Z,17.00
2018-06-05T23:01:26.638Z,16.90
2018-06-05T23:06:29.275Z,16.90
2018-06-05T23:11:31.892Z,16.80
2018-06-05T23:16:34.480Z,16.80
2018-06-05T23:21:37.080Z,16.80
2018-06-05T23:26:39.689Z,16.60
2018-06-05T23:31:42.287Z,16.50
2018-06-05T23:36:45.008Z,16.60
2018-06-05T23:41:47.639Z,16.60
2018-06-05T23:46:50.253Z,16.60
2018-06-05T23:51:57.399Z,16.50
2018-06-05T23:57:00.014Z,16.50
